Northwest Sanderling — VNVZ — position and weather

sailwx.info

Track history (hours):
 
Tides and Currents Weather Stations Pressure Air Temp Water Temp Dewpoint Dewpoint Depression Visibility Wind Speed Wind Dir Waves Ship Positions

Northwest Sanderling

Last reported at 2017-Oct-20 12:00 UTC. Time now 2017-Oct-20 14:45 UTC.
Position N 11°00' E 129°24'.

Length 272 m; beam 47.2 m; draft 11.4 m.

Type: Ship (hazmat cat A). MMSI: 503000050.

Wind from 210 at 30 knots

Barometer 1005.8 mb
Air temperature 29.5 ° C
Dewpoint 28.8 ° C
Water temperature 30.0 ° C

Date/timePositionNaut miles runAvg speedWind from/ knotsBaromVisibWave heightAir tempDewpointWater temp
2017-Oct-20 12:00N 11°00' E 129°24'16113.4 210 / 301005.8 29.528.830.0
2017-Oct-20 00:00N 08°24' E 128°42'   210 / 301008.810.8 29.528.830.0
2017-Oct-17 00:00S 08°36' E 124°42'55814.0 280 / 81010.510.8 28.026.629.5
2017-Oct-15 08:14S 16°11' E 119°12'914.4
2017-Oct-15 07:35S 16°20' E 119°07'214.7
2017-Oct-15 07:26S 16°22' E 119°06'614.6
2017-Oct-15 07:00S 16°27' E 119°03'714.8
2017-Oct-15 06:30S 16°34' E 119°00'714.9
2017-Oct-15 06:01S 16°40' E 118°57'1115.0
2017-Oct-15 05:17S 16°50' E 118°51'414.8
2017-Oct-15 05:00S 16°53' E 118°49'2114.7
2017-Oct-15 03:35S 17°11' E 118°38'414.9
2017-Oct-15 03:18S 17°15' E 118°36'1215.1
2017-Oct-15 02:31S 17°25' E 118°30'1815.2
2017-Oct-15 01:19S 17°42' E 118°21'1615.1
2017-Oct-15 00:15S 17°55' E 118°12'415.2
2017-Oct-15 00:00S 17°59' E 118°10'1015.3
2017-Oct-14 23:23S 18°07' E 118°05'615.5
2017-Oct-14 23:01S 18°12' E 118°02'815.3
2017-Oct-14 22:31S 18°19' E 117°58'815.0
2017-Oct-14 22:00S 18°25' E 117°54'815.0
2017-Oct-14 21:29S 18°32' E 117°51'715.2
2017-Oct-14 21:01S 18°38' E 117°47'815.2
2017-Oct-14 20:31S 18°45' E 117°43'714.9
2017-Oct-14 20:01S 18°52' E 117°39'815.2
2017-Oct-14 19:31S 18°58' E 117°36'714.6
2017-Oct-14 19:00S 19°05' E 117°32'814.6
2017-Oct-14 18:26S 19°12' E 117°28'814.5
2017-Oct-14 17:53S 19°20' E 117°24'514.6
2017-Oct-14 17:31S 19°24' E 117°20'714.6
2017-Oct-14 17:01S 19°29' E 117°15'714.4
2017-Oct-14 16:30S 19°36' E 117°12'714.4
2017-Oct-14 16:01S 19°42' E 117°08'714.4
2017-Oct-14 15:30S 19°48' E 117°04'714.6
2017-Oct-14 15:01S 19°54' E 117°00'714.6
2017-Oct-14 14:30S 20°01' E 116°56'714.5
2017-Oct-14 14:00S 20°07' E 116°52'814.7
2017-Oct-14 13:29S 20°13' E 116°48'715.0
2017-Oct-14 13:00S 20°20' E 116°44'612.0
2017-Oct-14 12:28S 20°26' E 116°44'511.6
2017-Oct-14 12:00S 20°32' E 116°43'4 7.5
2017-Oct-14 11:30S 20°35' E 116°45'1 1.3
2017-Oct-14 10:53S 20°35' E 116°46'0 0.0
2017-Oct-14 10:26S 20°35' E 116°46'0 0.0
2017-Oct-14 09:59S 20°35' E 116°46'0 0.0
2017-Oct-13 00:36S 20°35' E 116°46'0 0.4
2017-Oct-13 00:30S 20°35' E 116°46'1 1.7
2017-Oct-13 00:00S 20°35' E 116°45'4 7.2
2017-Oct-12 23:30S 20°32' E 116°43'3 1.2
2017-Oct-12 21:26S 20°29' E 116°45'0 0.0
2017-Oct-12 20:56S 20°29' E 116°45'0 0.0
2017-Oct-12 18:44S 20°30' E 116°45'0 0.0
2017-Oct-12 18:26S 20°30' E 116°45'0 0.0
2017-Oct-12 17:56S 20°30' E 116°45'0 0.0
2017-Oct-12 15:02S 20°30' E 116°45'0 0.0
2017-Oct-12 14:02S 20°30' E 116°45'0 0.0
2017-Oct-12 13:50S 20°30' E 116°45'0 0.0
2017-Oct-12 13:26S 20°30' E 116°45'0 0.0
2017-Oct-12 12:50S 20°30' E 116°45'0 0.0
2017-Oct-12 11:50S 20°30' E 116°45'0 0.0
2017-Oct-12 11:26S 20°30' E 116°45'0 0.0
2017-Oct-12 10:56S 20°30' E 116°45'0 0.0
2017-Oct-12 10:14S 20°30' E 116°45'0 0.0
2017-Oct-12 09:44S 20°30' E 116°45'0 0.0
2017-Oct-12 08:20S 20°30' E 116°45'0 0.0
2017-Oct-12 07:50S 20°30' E 116°45'0 0.0
2017-Oct-12 07:26S 20°30' E 116°45'0 0.0
2017-Oct-12 06:14S 20°30' E 116°45'0 0.0
2017-Oct-12 05:56S 20°30' E 116°45'0 0.0
2017-Oct-12 05:26S 20°30' E 116°45'0 0.0
2017-Oct-11 17:38S 20°30' E 116°45'0 0.0
2017-Oct-11 17:14S 20°30' E 116°45'0 0.0
2017-Oct-11 16:44S 20°30' E 116°45'1 0.0
2017-Oct-10 23:51S 20°29' E 116°45'3 7.5
2017-Oct-10 23:30S 20°26' E 116°44'511.0
2017-Oct-10 23:00S 20°21' E 116°44'611.2
2017-Oct-10 22:28S 20°16' E 116°47'5 9.8
2017-Oct-10 22:00S 20°12' E 116°50'713.3
2017-Oct-10 21:29S 20°06' E 116°53'613.0
2017-Oct-10 21:00S 20°00' E 116°56'612.8
2017-Oct-10 20:30S 19°55' E 116°60'1712.7
2017-Oct-10 19:09S 19°40' E 117°10'211.2
2017-Oct-10 18:58S 19°38' E 117°10'  
Track history (hours):
 
Tides and Currents Weather Stations Pressure Air Temp Water Temp Dewpoint Dewpoint Depression Visibility Wind Speed Wind Dir Waves Ship Positions

Northwest Sanderling

Last reported at 2017-Oct-20 12:00 UTC. Time now 2017-Oct-20 14:45 UTC.
Position N 11°00' E 129°24'.

Length 272 m; beam 47.2 m; draft 11.4 m.

Type: Ship (hazmat cat A). MMSI: 503000050.

Wind from 210 at 30 knots

Barometer 1005.8 mb
Air temperature 29.5 ° C
Dewpoint 28.8 ° C
Water temperature 30.0 ° C

Date/timePositionNaut miles runAvg speedWind from/ knotsBaromVisibWave heightAir tempDewpointWater temp
2017-Oct-20 12:00N 11°00' E 129°24'16113.4 210 / 301005.8 29.528.830.0
2017-Oct-20 00:00N 08°24' E 128°42'   210 / 301008.810.8 29.528.830.0
2017-Oct-17 00:00S 08°36' E 124°42'55814.0 280 / 81010.510.8 28.026.629.5
2017-Oct-15 08:14S 16°11' E 119°12'914.4
2017-Oct-15 07:35S 16°20' E 119°07'214.7
2017-Oct-15 07:26S 16°22' E 119°06'614.6
2017-Oct-15 07:00S 16°27' E 119°03'714.8
2017-Oct-15 06:30S 16°34' E 119°00'714.9
2017-Oct-15 06:01S 16°40' E 118°57'1115.0
2017-Oct-15 05:17S 16°50' E 118°51'414.8
2017-Oct-15 05:00S 16°53' E 118°49'2114.7
2017-Oct-15 03:35S 17°11' E 118°38'414.9
2017-Oct-15 03:18S 17°15' E 118°36'1215.1
2017-Oct-15 02:31S 17°25' E 118°30'1815.2
2017-Oct-15 01:19S 17°42' E 118°21'1615.1
2017-Oct-15 00:15S 17°55' E 118°12'415.2
2017-Oct-15 00:00S 17°59' E 118°10'1015.3
2017-Oct-14 23:23S 18°07' E 118°05'615.5
2017-Oct-14 23:01S 18°12' E 118°02'815.3
2017-Oct-14 22:31S 18°19' E 117°58'815.0
2017-Oct-14 22:00S 18°25' E 117°54'815.0
2017-Oct-14 21:29S 18°32' E 117°51'715.2
2017-Oct-14 21:01S 18°38' E 117°47'815.2
2017-Oct-14 20:31S 18°45' E 117°43'714.9
2017-Oct-14 20:01S 18°52' E 117°39'815.2
2017-Oct-14 19:31S 18°58' E 117°36'714.6
2017-Oct-14 19:00S 19°05' E 117°32'814.6
2017-Oct-14 18:26S 19°12' E 117°28'814.5
2017-Oct-14 17:53S 19°20' E 117°24'514.6
2017-Oct-14 17:31S 19°24' E 117°20'714.6
2017-Oct-14 17:01S 19°29' E 117°15'714.4
2017-Oct-14 16:30S 19°36' E 117°12'714.4
2017-Oct-14 16:01S 19°42' E 117°08'714.4
2017-Oct-14 15:30S 19°48' E 117°04'714.6
2017-Oct-14 15:01S 19°54' E 117°00'714.6
2017-Oct-14 14:30S 20°01' E 116°56'714.5
2017-Oct-14 14:00S 20°07' E 116°52'814.7
2017-Oct-14 13:29S 20°13' E 116°48'715.0
2017-Oct-14 13:00S 20°20' E 116°44'612.0
2017-Oct-14 12:28S 20°26' E 116°44'511.6
2017-Oct-14 12:00S 20°32' E 116°43'4 7.5
2017-Oct-14 11:30S 20°35' E 116°45'1 1.3
2017-Oct-14 10:53S 20°35' E 116°46'0 0.0
2017-Oct-14 10:26S 20°35' E 116°46'0 0.0
2017-Oct-14 09:59S 20°35' E 116°46'0 0.0
2017-Oct-13 00:36S 20°35' E 116°46'0 0.4
2017-Oct-13 00:30S 20°35' E 116°46'1 1.7
2017-Oct-13 00:00S 20°35' E 116°45'4 7.2
2017-Oct-12 23:30S 20°32' E 116°43'3 1.2
2017-Oct-12 21:26S 20°29' E 116°45'0 0.0
2017-Oct-12 20:56S 20°29' E 116°45'0 0.0
2017-Oct-12 18:44S 20°30' E 116°45'0 0.0
2017-Oct-12 18:26S 20°30' E 116°45'0 0.0
2017-Oct-12 17:56S 20°30' E 116°45'0 0.0
2017-Oct-12 15:02S 20°30' E 116°45'0 0.0
2017-Oct-12 14:02S 20°30' E 116°45'0 0.0
2017-Oct-12 13:50S 20°30' E 116°45'0 0.0
2017-Oct-12 13:26S 20°30' E 116°45'0 0.0
2017-Oct-12 12:50S 20°30' E 116°45'0 0.0
2017-Oct-12 11:50S 20°30' E 116°45'0 0.0
2017-Oct-12 11:26S 20°30' E 116°45'0 0.0
2017-Oct-12 10:56S 20°30' E 116°45'0 0.0
2017-Oct-12 10:14S 20°30' E 116°45'0 0.0
2017-Oct-12 09:44S 20°30' E 116°45'0 0.0
2017-Oct-12 08:20S 20°30' E 116°45'0 0.0
2017-Oct-12 07:50S 20°30' E 116°45'0 0.0
2017-Oct-12 07:26S 20°30' E 116°45'0 0.0
2017-Oct-12 06:14S 20°30' E 116°45'0 0.0
2017-Oct-12 05:56S 20°30' E 116°45'0 0.0
2017-Oct-12 05:26S 20°30' E 116°45'0 0.0
2017-Oct-11 17:38S 20°30' E 116°45'0 0.0
2017-Oct-11 17:14S 20°30' E 116°45'0 0.0
2017-Oct-11 16:44S 20°30' E 116°45'1 0.0
2017-Oct-10 23:51S 20°29' E 116°45'3 7.5
2017-Oct-10 23:30S 20°26' E 116°44'511.0
2017-Oct-10 23:00S 20°21' E 116°44'611.2
2017-Oct-10 22:28S 20°16' E 116°47'5 9.8
2017-Oct-10 22:00S 20°12' E 116°50'713.3
2017-Oct-10 21:29S 20°06' E 116°53'613.0
2017-Oct-10 21:00S 20°00' E 116°56'612.8
2017-Oct-10 20:30S 19°55' E 116°60'1712.7
2017-Oct-10 19:09S 19°40' E 117°10'211.2
2017-Oct-10 18:58S 19°38' E 117°10'  

Dump ship's entire track history